Time;durP1;ratioP1;P1;durP2;ratioP2;P2;SDS_P1;SDS_P2;PMS_P1;PMS_P2;Temp;Humidity;BMP_temperature;BMP_pressure;BME280_temperature;BME280_humidity;BME280_pressure;Samples;Min_cycle;Max_cycle;Signal;HPM_P1;HPM_P2
2023/01/30 00:02:04;;;;;;;60.00;23.98;;;;;;;4.37;100.00;102045.09;5255119;28;20115;-74
2023/01/30 00:04:34;;;;;;;57.08;24.52;;;;;;;4.37;100.00;102046.88;5258582;28;20028;-74
2023/01/30 00:07:05;;;;;;;57.55;23.80;;;;;;;4.37;100.00;102023.81;5245579;28;20110;-74
2023/01/30 00:09:35;;;;;;;60.65;25.45;;;;;;;4.38;100.00;102032.66;5245435;28;20028;-74
2023/01/30 00:12:06;;;;;;;54.03;22.67;;;;;;;4.41;100.00;102027.97;5247035;28;20017;-75
2023/01/30 00:14:36;;;;;;;57.90;23.48;;;;;;;4.45;100.00;102025.97;5247420;28;20029;-74
2023/01/30 00:17:07;;;;;;;63.08;24.35;;;;;;;4.43;100.00;102027.88;5262571;28;20024;-75
2023/01/30 00:19:37;;;;;;;57.70;23.75;;;;;;;4.45;100.00;102018.00;5246896;28;20051;-74
2023/01/30 00:22:07;;;;;;;56.95;24.38;;;;;;;4.49;100.00;102014.22;5246305;28;20115;-74
2023/01/30 00:24:38;;;;;;;60.58;23.38;;;;;;;4.52;100.00;102010.47;5247064;28;20028;-75
2023/01/30 00:30:36;;;;;;;63.10;26.15;;;;;;;4.50;100.00;101994.66;5246542;28;20485;-75
2023/01/30 00:33:08;;;;;;;57.88;22.92;;;;;;;4.55;100.00;101995.19;5246687;28;20106;-75
2023/01/30 00:35:43;;;;;;;59.78;25.20;;;;;;;4.52;100.00;101979.47;5246779;28;20027;-75
2023/01/30 00:38:13;;;;;;;68.28;28.25;;;;;;;4.47;100.00;101983.34;5246006;28;20107;-74
2023/01/30 00:40:45;;;;;;;60.10;25.33;;;;;;;4.49;100.00;102000.91;5246318;28;20111;-75
2023/01/30 00:49:11;;;;;;;68.50;27.70;;;;;;;4.51;100.00;101985.72;5245987;28;20036;-74
2023/01/30 00:51:42;;;;;;;62.40;25.48;;;;;;;4.51;100.00;101971.56;5245155;28;20028;-75
2023/01/30 00:54:13;;;;;;;62.63;26.25;;;;;;;4.51;100.00;101979.56;5244914;28;20020;-75
2023/01/30 00:56:43;;;;;;;63.63;26.05;;;;;;;4.54;100.00;101990.84;5246240;28;20162;-75
2023/01/30 00:59:14;;;;;;;59.42;25.00;;;;;;;4.53;100.00;101991.81;5251188;28;20024;-74
2023/01/30 01:01:44;;;;;;;58.55;24.63;;;;;;;4.55;100.00;101994.34;5255118;28;20037;-74
2023/01/30 01:04:14;;;;;;;59.38;24.27;;;;;;;4.56;100.00;102004.88;5245762;28;20028;-75
2023/01/30 01:06:45;;;;;;;55.70;23.92;;;;;;;4.63;100.00;101986.75;5245852;28;20103;-74
2023/01/30 01:09:16;;;;;;;64.00;24.58;;;;;;;4.61;100.00;101985.97;5259714;28;20480;-75
2023/01/30 01:11:46;;;;;;;62.67;24.15;;;;;;;4.64;100.00;101986.63;5245717;28;20503;-75
2023/01/30 01:14:17;;;;;;;54.78;23.33;;;;;;;4.65;100.00;101988.34;5245494;28;20748;-75
2023/01/30 01:16:47;;;;;;;61.08;23.17;;;;;;;4.64;100.00;101975.16;5261659;28;20040;-75
2023/01/30 01:19:18;;;;;;;66.18;24.95;;;;;;;4.65;100.00;101976.84;5245923;28;20095;-75
2023/01/30 01:21:48;;;;;;;56.13;22.48;;;;;;;4.65;100.00;101975.03;5244315;28;20062;-75
2023/01/30 01:24:19;;;;;;;57.40;22.67;;;;;;;4.70;100.00;101974.75;5245355;28;20028;-74
2023/01/30 01:26:49;;;;;;;54.70;22.75;;;;;;;4.71;100.00;101987.06;5243935;28;20032;-75
2023/01/30 01:29:19;;;;;;;52.25;21.50;;;;;;;4.73;100.00;101979.88;5244772;28;20403;-75
2023/01/30 01:31:50;;;;;;;60.13;22.90;;;;;;;4.74;100.00;101976.25;5244003;28;20039;-74
2023/01/30 01:34:20;;;;;;;50.55;22.50;;;;;;;4.74;100.00;101970.09;5245179;28;20020;-75
2023/01/30 01:36:51;;;;;;;52.38;22.15;;;;;;;4.74;100.00;101960.31;5244576;28;20032;-74
2023/01/30 01:39:22;;;;;;;52.90;22.80;;;;;;;4.75;100.00;101956.69;5244108;28;20027;-74
2023/01/30 01:41:52;;;;;;;50.97;22.83;;;;;;;4.76;100.00;101952.22;5258708;28;20469;-74
2023/01/30 01:44:23;;;;;;;53.80;24.00;;;;;;;4.79;100.00;101960.84;5243979;28;20032;-75
2023/01/30 01:46:58;;;;;;;55.28;23.27;;;;;;;4.82;100.00;101960.66;5244774;28;20108;-75
2023/01/30 01:49:32;;;;;;;52.00;21.77;;;;;;;4.85;100.00;101965.75;5244526;28;20496;-75
2023/01/30 01:52:08;;;;;;;58.60;21.15;;;;;;;4.83;100.00;101953.53;5245379;28;20063;-75
2023/01/30 01:55:00;;;;;;;57.17;23.17;;;;;;;4.86;100.00;101963.94;5243676;28;20031;-75
2023/01/30 01:57:37;;;;;;;50.38;21.73;;;;;;;4.85;100.00;101954.28;5243873;28;20506;-75
2023/01/30 02:00:26;;;;;;;47.88;21.10;;;;;;;4.88;100.00;101952.28;5255621;28;20027;-75
2023/01/30 02:03:01;;;;;;;59.08;22.05;;;;;;;4.87;100.00;101939.06;5253413;28;20024;-75
2023/01/30 02:05:36;;;;;;;54.42;22.02;;;;;;;4.88;100.00;101952.28;5248356;28;20032;-75
2023/01/30 02:08:20;;;;;;;55.53;22.05;;;;;;;4.90;100.00;101953.00;5257061;28;20035;-75
2023/01/30 02:11:14;;;;;;;57.00;23.20;;;;;;;4.89;100.00;101948.66;5245294;28;20115;-75
2023/01/30 02:13:46;;;;;;;52.03;20.67;;;;;;;4.94;100.00;101935.88;5244771;28;20028;-74
2023/01/30 02:16:17;;;;;;;55.65;22.17;;;;;;;5.02;100.00;101950.47;5259345;28;20507;-75
2023/01/30 02:18:47;;;;;;;48.97;21.70;;;;;;;5.00;100.00;101944.41;5260043;28;20032;-75
2023/01/30 02:21:38;;;;;;;45.03;19.60;;;;;;;5.02;100.00;101939.84;5256496;28;20027;-75
2023/01/30 02:24:45;;;;;;;53.60;19.92;;;;;;;5.05;100.00;101919.22;5255996;28;20089;-75
2023/01/30 02:27:26;;;;;;;52.05;21.30;;;;;;;5.02;100.00;101899.94;5252330;28;20024;-75
2023/01/30 02:30:33;;;;;;;56.65;21.80;;;;;;;5.03;100.00;101891.03;5265480;28;20070;-75
2023/01/30 02:33:24;;;;;;;51.97;20.50;;;;;;;5.00;100.00;101873.47;5248881;28;20410;-75
2023/01/30 02:36:18;;;;;;;49.05;20.23;;;;;;;5.04;100.00;101879.41;5244861;28;20400;-75
2023/01/30 02:39:34;;;;;;;43.38;19.45;;;;;;;5.12;100.00;101869.09;5254760;28;20022;-75
2023/01/30 02:42:17;;;;;;;42.30;18.27;;;;;;;5.14;100.00;101872.50;5244577;28;20025;-75
2023/01/30 02:45:27;;;;;;;44.53;18.67;;;;;;;5.19;100.00;101884.53;5247845;28;20497;-74
2023/01/30 02:48:16;;;;;;;48.15;19.20;;;;;;;5.20;100.00;101872.09;5244429;28;20116;-75
2023/01/30 02:50:56;;;;;;;43.92;19.23;;;;;;;5.22;100.00;101871.97;5244634;28;20016;-75
2023/01/30 02:53:32;;;;;;;39.10;17.60;;;;;;;5.28;100.00;101867.09;5245021;28;20016;-75
2023/01/30 02:56:03;;;;;;;40.22;17.50;;;;;;;5.31;100.00;101866.84;5244567;28;20055;-74
2023/01/30 02:58:41;;;;;;;41.45;18.38;;;;;;;5.30;100.00;101857.19;5256486;28;20095;-75
2023/01/30 03:01:52;;;;;;;40.53;17.52;;;;;;;5.33;100.00;101874.75;5244636;28;20116;-75
2023/01/30 03:04:46;;;;;;;50.90;19.48;;;;;;;5.36;100.00;101878.03;5243805;28;20040;-75
2023/01/30 03:07:51;;;;;;;42.08;17.15;;;;;;;5.37;100.00;101885.06;5244098;28;20035;-75
2023/01/30 03:11:10;;;;;;;46.78;17.65;;;;;;;5.41;100.00;101875.91;5243865;28;20029;-75
2023/01/30 03:14:06;;;;;;;40.42;16.50;;;;;;;5.44;100.00;101875.69;5256477;28;20116;-75
2023/01/30 03:16:37;;;;;;;;;;;;;;;5.48;100.00;101854.19;5260798;28;20069;-75
2023/01/30 03:19:12;;;;;;;42.80;17.40;;;;;;;5.51;100.00;101865.44;5244066;28;20461;-75
2023/01/30 03:21:43;;;;;;;45.13;15.90;;;;;;;5.53;100.00;101846.72;5243922;28;20029;-75
2023/01/30 03:24:15;;;;;;;44.65;18.35;;;;;;;5.53;100.00;101852.06;5244158;28;20025;-75
2023/01/30 03:26:54;;;;;;;36.20;17.00;;;;;;;5.60;100.00;101863.97;5242433;28;20382;-75
2023/01/30 03:29:25;;;;;;;39.97;15.35;;;;;;;5.61;100.00;101852.34;5242617;28;20047;-75
2023/01/30 03:31:55;;;;;;;36.70;15.35;;;;;;;5.65;100.00;101848.50;5243927;28;20024;-75
2023/01/30 03:34:26;;;;;;;40.75;16.63;;;;;;;5.66;100.00;101852.88;5243989;28;20025;-75
2023/01/30 03:36:56;;;;;;;35.75;16.17;;;;;;;5.66;100.00;101858.19;5243748;28;20060;-75
2023/01/30 03:39:27;;;;;;;36.67;15.85;;;;;;;5.66;100.00;101845.72;5245620;28;20024;-75
2023/01/30 03:41:58;;;;;;;34.33;15.50;;;;;;;5.70;100.00;101841.88;5254005;28;20044;-75
2023/01/30 03:44:29;;;;;;;33.30;16.35;;;;;;;5.71;100.00;101848.06;5247046;28;20020;-75
2023/01/30 03:47:00;;;;;;;41.58;15.50;;;;;;;5.68;100.00;101838.50;5253488;28;20039;-75
2023/01/30 03:49:30;;;;;;;38.78;17.63;;;;;;;5.71;100.00;101840.91;5244073;28;20116;-75
2023/01/30 03:52:00;;;;;;;38.55;16.83;;;;;;;5.63;100.00;101834.47;5244930;28;20025;-76
2023/01/30 03:54:31;;;;;;;43.00;18.58;;;;;;;5.60;100.00;101837.34;5247026;28;20064;-75
2023/01/30 03:57:01;;;;;;;43.08;17.00;;;;;;;5.59;100.00;101838.31;5247527;28;20222;-75
2023/01/30 03:59:32;;;;;;;40.90;15.52;;;;;;;5.56;100.00;101849.16;5247756;28;20039;-76
2023/01/30 04:02:03;;;;;;;43.65;17.90;;;;;;;5.54;100.00;101837.78;5247126;28;20021;-76
2023/01/30 04:04:34;;;;;;;45.58;17.63;;;;;;;5.53;100.00;101849.41;5247536;28;20029;-75
2023/01/30 04:07:04;;;;;;;45.72;18.02;;;;;;;5.54;100.00;101838.63;5246547;28;20404;-76
2023/01/30 04:09:35;;;;;;;47.13;17.45;;;;;;;5.52;100.00;101837.88;5247129;28;20027;-76
2023/01/30 04:12:05;;;;;;;51.28;19.02;;;;;;;5.53;100.00;101842.25;5247158;28;20146;-76
2023/01/30 04:14:36;;;;;;;45.35;17.98;;;;;;;5.49;100.00;101856.75;5247629;28;20103;-76
2023/01/30 04:17:06;;;;;;;41.50;17.60;;;;;;;5.51;100.00;101838.00;5263102;28;20031;-76
2023/01/30 04:19:37;;;;;;;55.58;17.52;;;;;;;5.52;100.00;101834.38;5245623;28;20024;-76
2023/01/30 04:22:07;;;;;;;44.80;16.88;;;;;;;5.51;100.00;101841.50;5246958;28;20042;-75
2023/01/30 04:24:38;;;;;;;48.45;17.45;;;;;;;5.49;100.00;101835.44;5246917;28;20487;-76
2023/01/30 04:27:09;;;;;;;50.13;17.98;;;;;;;5.51;100.00;101835.31;5254087;28;20016;-76
2023/01/30 04:29:39;;;;;;;47.50;17.63;;;;;;;5.47;100.00;101834.69;5253009;28;20465;-76
2023/01/30 04:32:10;;;;;;;42.85;17.10;;;;;;;5.48;100.00;101828.44;5246402;28;20050;-75
2023/01/30 04:34:42;;;;;;;46.70;18.33;;;;;;;5.47;100.00;101826.69;5246698;28;20031;-76
2023/01/30 04:37:13;;;;;;;46.60;18.15;;;;;;;5.48;100.00;101832.91;5246469;28;20028;-75
2023/01/30 04:39:43;;;;;;;48.00;19.70;;;;;;;5.50;100.00;101829.16;5245434;28;20102;-75
2023/01/30 04:42:14;;;;;;;44.45;19.02;;;;;;;5.53;100.00;101825.44;5245789;28;20035;-75
2023/01/30 04:44:44;;;;;;;52.35;25.38;;;;;;;5.54;100.00;101829.81;5245259;28;20165;-75
2023/01/30 04:47:15;;;;;;;60.95;25.27;;;;;;;5.51;100.00;101809.56;5246292;28;20024;-75
2023/01/30 04:49:46;;;;;;;45.78;17.90;;;;;;;5.52;100.00;101813.06;5246384;28;20035;-75
2023/01/30 04:52:16;;;;;;;60.78;30.40;;;;;;;5.56;100.00;101814.56;5259842;28;20427;-75
2023/01/30 04:54:47;;;;;;;64.82;27.48;;;;;;;5.60;100.00;101806.25;5246343;28;20111;-75
2023/01/30 04:57:17;;;;;;;72.80;34.95;;;;;;;5.61;100.00;101805.28;5245716;28;20472;-75
2023/01/30 04:59:47;;;;;;;95.60;44.72;;;;;;;5.60;100.00;101795.59;5256372;28;20452;-75
2023/01/30 05:02:18;;;;;;;81.40;32.05;;;;;;;5.62;100.00;101811.44;5251288;28;20476;-75
2023/01/30 05:04:49;;;;;;;77.85;34.22;;;;;;;5.62;100.00;101803.47;5245267;28;20052;-76
2023/01/30 05:07:19;;;;;;;79.88;34.70;;;;;;;5.65;100.00;101816.56;5244095;28;20028;-75
2023/01/30 05:09:50;;;;;;;61.15;25.58;;;;;;;5.66;100.00;101810.28;5246481;28;20037;-75
2023/01/30 05:12:20;;;;;;;55.83;23.80;;;;;;;5.69;100.00;101810.06;5245973;28;20142;-75
2023/01/30 05:14:51;;;;;;;47.72;19.73;;;;;;;5.75;100.00;101824.72;5248690;28;20028;-75
2023/01/30 05:17:21;;;;;;;51.85;23.08;;;;;;;5.72;100.00;101826.66;5245852;28;20033;-75
2023/01/30 05:19:52;;;;;;;63.13;24.55;;;;;;;5.74;100.00;101817.72;5245397;28;20117;-75
2023/01/30 05:22:22;;;;;;;51.08;21.40;;;;;;;5.73;100.00;101827.53;5245906;28;20024;-75
2023/01/30 05:24:53;;;;;;;48.97;20.65;;;;;;;5.77;100.00;101820.97;5259451;28;20112;-75
2023/01/30 05:27:23;;;;;;;43.53;18.33;;;;;;;5.79;100.00;101818.22;5244102;28;20104;-75
2023/01/30 05:29:54;;;;;;;42.63;18.13;;;;;;;5.81;100.00;101814.47;5245577;28;20024;-75
2023/01/30 05:32:26;;;;;;;61.50;25.63;;;;;;;5.87;100.00;101829.16;5245179;28;20078;-75
2023/01/30 05:34:56;;;;;;;55.03;20.92;;;;;;;5.95;100.00;101838.31;5245630;28;20024;-75
2023/01/30 05:37:27;;;;;;;33.42;15.73;;;;;;;5.94;100.00;101835.78;5245050;28;20033;-75
2023/01/30 05:39:57;;;;;;;34.20;14.52;;;;;;;5.95;100.00;101838.31;5245425;28;20705;-75
2023/01/30 05:42:27;;;;;;;27.33;13.50;;;;;;;5.98;100.00;101831.94;5245392;28;20060;-75
2023/01/30 05:44:58;;;;;;;35.22;15.75;;;;;;;6.06;100.00;101839.34;5243847;28;20032;-76
2023/01/30 05:47:28;;;;;;;37.22;15.70;;;;;;;6.11;100.00;101843.38;5244736;28;20420;-76
2023/01/30 05:49:59;;;;;;;32.72;13.65;;;;;;;6.06;100.00;101842.03;5245336;28;20028;-76
2023/01/30 05:52:30;;;;;;;30.75;13.77;;;;;;;6.05;100.00;101837.66;5245006;28;20073;-76
2023/01/30 05:55:00;;;;;;;44.38;19.42;;;;;;;6.05;100.00;101832.34;5245185;28;20021;-75
2023/01/30 05:57:31;;;;;;;48.53;22.55;;;;;;;6.05;100.00;101827.84;5243553;28;20103;-77
2023/01/30 06:00:02;;;;;;;40.70;18.77;;;;;;;6.09;100.00;101828.47;5255923;28;20502;-75
2023/01/30 06:02:33;;;;;;;26.52;11.77;;;;;;;6.13;100.00;101835.28;5251697;28;20484;-76
2023/01/30 06:05:04;;;;;;;31.08;13.52;;;;;;;6.16;100.00;101843.88;5253749;28;20021;-76
2023/01/30 06:07:34;;;;;;;50.88;23.38;;;;;;;6.15;100.00;101862.66;5243414;28;20032;-76
2023/01/30 06:10:05;;;;;;;33.80;14.63;;;;;;;6.12;100.00;101868.19;5244622;28;20107;-76
2023/01/30 06:12:35;;;;;;;35.35;14.18;;;;;;;6.16;100.00;101883.84;5245045;28;20051;-76
2023/01/30 06:15:06;;;;;;;26.85;12.43;;;;;;;6.16;100.00;101878.53;5249123;28;20115;-76
2023/01/30 06:17:41;;;;;;;24.83;11.93;;;;;;;6.14;100.00;101882.28;5256304;28;20396;-76
2023/01/30 06:20:12;;;;;;;39.95;18.63;;;;;;;6.16;100.00;101883.00;5244545;28;20030;-76
2023/01/30 06:22:42;;;;;;;28.88;13.85;;;;;;;6.18;100.00;101875.78;5244951;28;20294;-76
2023/01/30 06:25:13;;;;;;;33.58;14.43;;;;;;;6.16;100.00;101880.34;5243731;28;20448;-76
2023/01/30 06:27:45;;;;;;;38.85;13.68;;;;;;;6.20;100.00;101882.66;5243359;28;20393;-76
2023/01/30 06:30:16;;;;;;;29.10;14.45;;;;;;;6.15;100.00;101879.50;5257121;28;20104;-76
2023/01/30 06:32:49;;;;;;;29.98;15.77;;;;;;;6.12;100.00;101886.84;5244236;28;20115;-75
2023/01/30 06:35:20;;;;;;;32.70;15.05;;;;;;;6.09;100.00;101890.59;5244930;28;20473;-75
2023/01/30 06:37:50;;;;;;;31.73;13.95;;;;;;;6.08;100.00;101893.38;5237515;28;20035;-76
2023/01/30 06:40:21;;;;;;;32.35;14.15;;;;;;;6.03;100.00;101888.41;5244777;28;20070;-76
2023/01/30 06:42:51;;;;;;;34.72;13.18;;;;;;;6.04;100.00;101874.09;5243019;28;20036;-76
2023/01/30 06:45:22;;;;;;;37.67;16.48;;;;;;;6.06;100.00;101885.50;5244396;28;20560;-75
2023/01/30 06:47:54;;;;;;;28.08;12.40;;;;;;;6.07;100.00;101892.50;5244180;28;20027;-76
2023/01/30 06:50:26;;;;;;;27.85;12.05;;;;;;;6.09;100.00;101887.09;5243451;28;20036;-76
2023/01/30 06:52:57;;;;;;;32.17;12.13;;;;;;;6.01;100.00;101876.13;5243260;28;20489;-75
2023/01/30 06:55:27;;;;;;;32.20;12.27;;;;;;;5.95;100.00;101869.44;5244640;28;20032;-76
2023/01/30 06:58:15;;;;;;;43.85;15.15;;;;;;;5.92;100.00;101870.53;5243856;28;20173;-75
2023/01/30 07:00:45;;;;;;;38.78;14.77;;;;;;;5.91;100.00;101860.81;5245618;28;20028;-76
2023/01/30 07:03:17;;;;;;;27.40;12.93;;;;;;;5.94;100.00;101865.09;5244193;28;20036;-75
2023/01/30 07:05:47;;;;;;;29.77;12.75;;;;;;;5.92;100.00;101874.97;5244222;28;20025;-76
2023/01/30 07:08:18;;;;;;;32.53;11.73;;;;;;;5.92;100.00;101867.00;5256310;28;20028;-76
2023/01/30 07:10:49;;;;;;;32.47;10.77;;;;;;;5.97;100.00;101878.16;5244941;28;20078;-76
2023/01/30 07:13:19;;;;;;;23.67;10.25;;;;;;;5.93;100.00;101882.88;5244204;28;20107;-76
2023/01/30 07:15:50;;;;;;;34.42;11.25;;;;;;;5.90;100.00;101887.53;5251176;28;20020;-76
2023/01/30 07:18:20;;;;;;;29.60;9.30;;;;;;;5.90;100.00;101884.88;5242629;28;20025;-75
2023/01/30 07:20:51;;;;;;;36.42;9.80;;;;;;;5.85;100.00;101884.34;5242784;28;20039;-75
2023/01/30 07:23:21;;;;;;;32.22;9.85;;;;;;;5.86;100.00;101880.72;5242330;28;20031;-76
2023/01/30 07:25:52;;;;;;;29.77;9.10;;;;;;;5.85;100.00;101884.34;5242990;28;20038;-75
2023/01/30 07:28:22;;;;;;;22.40;8.75;;;;;;;5.89;100.00;101885.84;5245745;28;20028;-76
2023/01/30 07:30:53;;;;;;;50.33;22.58;;;;;;;5.84;100.00;101901.31;5258627;28;20031;-76
2023/01/30 07:33:23;;;;;;;29.05;8.82;;;;;;;5.81;100.00;101906.84;5248249;28;20028;-76
2023/01/30 07:35:54;;;;;;;58.85;13.00;;;;;;;5.83;100.00;101908.44;5245494;28;20031;-76
2023/01/30 07:38:25;;;;;;;28.00;11.13;;;;;;;5.82;100.00;101909.38;5244966;28;20033;-76
2023/01/30 07:40:57;;;;;;;25.08;8.90;;;;;;;5.86;100.00;101913.53;5246829;28;20070;-76
2023/01/30 07:43:27;;;;;;;28.60;8.50;;;;;;;5.92;100.00;101915.81;5244891;28;20035;-76
2023/01/30 07:45:59;;;;;;;32.38;8.07;;;;;;;6.08;100.00;101923.53;5260088;28;20028;-76
2023/01/30 07:48:29;;;;;;;23.15;6.60;;;;;;;6.17;100.00;101930.84;5246204;28;20427;-76
2023/01/30 07:51:00;;;;;;;23.83;8.52;;;;;;;6.22;100.00;101941.16;5246321;28;20024;-76
2023/01/30 07:53:30;;;;;;;26.85;6.35;;;;;;;6.23;100.00;101926.91;5246172;28;20593;-76
2023/01/30 07:56:20;;;;;;;22.98;6.18;;;;;;;6.20;100.00;101929.78;5246110;28;20024;-76
2023/01/30 07:58:53;;;;;;;20.30;5.50;;;;;;;6.14;100.00;101928.44;5248207;28;20072;-76
2023/01/30 08:01:24;;;;;;;29.90;5.30;;;;;;;6.13;100.00;101939.19;5258890;28;20029;-76
2023/01/30 08:03:54;;;;;;;21.80;6.80;;;;;;;6.14;100.00;101944.41;5245401;28;20090;-76
2023/01/30 08:06:24;;;;;;;16.45;6.30;;;;;;;6.20;100.00;101937.78;5245853;28;20032;-76
2023/01/30 08:08:55;;;;;;;18.08;4.65;;;;;;;6.34;100.00;101945.63;5245829;28;20024;-76
2023/01/30 08:11:26;;;;;;;17.10;6.07;;;;;;;6.61;100.00;101941.88;5257871;28;20106;-76
2023/01/30 08:13:56;;;;;;;22.65;5.78;;;;;;;6.69;100.00;101943.03;5251699;28;20024;-75
2023/01/30 08:16:27;;;;;;;24.40;7.68;;;;;;;6.78;100.00;101929.94;5251316;28;20031;-76
2023/01/30 08:18:57;;;;;;;18.75;4.10;;;;;;;6.90;100.00;101924.56;5245738;28;20627;-75
2023/01/30 08:21:28;;;;;;;12.10;3.20;;;;;;;7.11;100.00;101916.72;5245014;28;20025;-74
2023/01/30 08:23:58;;;;;;;18.40;3.90;;;;;;;7.25;100.00;101929.03;5245749;28;20101;-75
2023/01/30 08:26:29;;;;;;;26.85;3.53;;;;;;;7.58;100.00;101936.25;5247188;28;20068;-75
2023/01/30 08:28:59;;;;;;;12.05;3.13;;;;;;;7.77;100.00;101938.28;5262151;28;20021;-75
2023/01/30 08:31:30;;;;;;;15.77;3.33;;;;;;;8.16;100.00;101936.94;5246512;28;20115;-76
2023/01/30 08:34:01;;;;;;;21.10;3.80;;;;;;;8.29;100.00;101942.13;5245588;28;20016;-76
2023/01/30 08:36:31;;;;;;;13.95;3.40;;;;;;;8.70;100.00;101951.28;5245934;28;20026;-75
2023/01/30 08:39:02;;;;;;;16.90;3.90;;;;;;;8.77;100.00;101955.16;5258163;28;20024;-75
2023/01/30 08:41:32;;;;;;;13.88;3.30;;;;;;;8.87;100.00;101955.22;5253326;28;20403;-75
2023/01/30 08:44:03;;;;;;;15.93;5.07;;;;;;;8.84;100.00;101956.34;5252870;28;20024;-75
2023/01/30 08:46:33;;;;;;;19.10;3.53;;;;;;;9.14;100.00;101952.94;5247271;28;20404;-75
2023/01/30 08:49:04;;;;;;;16.75;3.92;;;;;;;9.10;100.00;101961.34;5265577;28;20149;-76
2023/01/30 08:51:35;;;;;;;14.43;3.58;;;;;;;9.27;100.00;101963.41;5244215;28;20485;-76
2023/01/30 08:54:06;;;;;;;18.40;4.40;;;;;;;9.04;100.00;101968.91;5244624;28;20028;-75
2023/01/30 08:56:37;;;;;;;17.27;4.55;;;;;;;8.75;100.00;101959.78;5244558;28;20052;-74
2023/01/30 08:59:07;;;;;;;22.05;4.57;;;;;;;8.61;100.00;101966.28;5248398;28;20100;-76
2023/01/30 09:01:38;;;;;;;15.23;4.40;;;;;;;8.80;100.00;101982.50;5266110;28;20027;-75
2023/01/30 09:04:08;;;;;;;9.68;3.55;;;;;;;8.52;100.00;101975.03;5260440;28;20691;-75
2023/01/30 09:06:39;;;;;;;18.95;4.40;;;;;;;8.41;100.00;101983.09;5244980;28;20111;-75
2023/01/30 09:09:10;;;;;;;19.05;4.53;;;;;;;8.61;100.00;101984.16;5242864;28;20017;-76
2023/01/30 09:11:41;;;;;;;16.10;4.47;;;;;;;8.86;100.00;101993.69;5243581;28;20031;-76
2023/01/30 09:14:11;;;;;;;11.30;3.55;;;;;;;9.15;100.00;101999.28;5244139;28;20051;-75
2023/01/30 09:16:41;;;;;;;17.23;3.80;;;;;;;9.26;100.00;101994.72;5247073;28;20388;-75
2023/01/30 09:19:12;;;;;;;20.17;3.60;;;;;;;9.27;100.00;101995.56;5244831;28;20634;-76
2023/01/30 09:21:42;;;;;;;16.95;3.42;;;;;;;9.33;100.00;102003.06;5243965;28;20074;-76
2023/01/30 09:24:13;;;;;;;15.93;4.63;;;;;;;9.33;100.00;101995.88;5242775;28;20104;-76
2023/01/30 09:26:44;;;;;;;18.60;3.00;;;;;;;9.22;100.00;101995.09;5244366;28;20155;-75
2023/01/30 09:29:14;;;;;;;16.02;3.03;;;;;;;9.23;100.00;102000.31;5244291;28;20496;-75
2023/01/30 09:31:45;;;;;;;21.63;3.63;;;;;;;9.36;100.00;102010.84;5242771;28;20033;-75
2023/01/30 09:34:15;;;;;;;18.80;3.33;;;;;;;9.38;100.00;102016.06;5242116;28;20115;-76
2023/01/30 09:36:46;;;;;;;18.08;3.25;;;;;;;9.13;100.00;102009.25;5244186;28;20111;-75
2023/01/30 09:39:16;;;;;;;16.17;3.22;;;;;;;9.28;100.00;102024.88;5244264;28;20025;-75
2023/01/30 09:42:08;;;;;;;17.05;2.92;;;;;;;9.30;100.00;102028.28;5243242;28;20025;-75
2023/01/30 09:44:56;;;;;;;18.75;2.75;;;;;;;9.41;100.00;102039.94;5241964;28;20038;-75
2023/01/30 09:47:51;;;;;;;10.25;2.22;;;;;;;9.32;100.00;102025.47;5243813;28;20063;-76
2023/01/30 09:50:58;;;;;;;18.08;3.47;;;;;;;9.40;100.00;102022.16;5243409;28;20027;-76
2023/01/30 09:53:33;;;;;;;24.70;3.35;;;;;;;9.57;100.00;102024.25;5243555;28;20024;-76
2023/01/30 09:56:04;;;;;;;25.95;4.50;;;;;;;9.29;100.00;102023.91;5247223;28;20103;-76
2023/01/30 09:59:01;;;;;;;26.15;4.50;;;;;;;9.32;100.00;102034.34;5251613;28;20035;-76
2023/01/30 10:01:43;;;;;;;17.58;2.65;;;;;;;9.42;100.00;102042.47;5243803;28;20119;-76
2023/01/30 10:04:22;;;;;;;17.90;3.53;;;;;;;9.38;100.00;102041.03;5255776;28;20063;-76
2023/01/30 10:07:05;;;;;;;17.58;2.92;;;;;;;9.27;100.00;102049.13;5242278;28;20055;-76
2023/01/30 10:09:56;;;;;;;19.42;3.75;;;;;;;8.83;100.00;102056.31;5243020;28;20119;-75
2023/01/30 10:12:35;;;;;;;16.20;2.22;;;;;;;8.59;100.00;102067.22;5250165;28;20023;-76
2023/01/30 10:15:32;;;;;;;14.48;3.05;;;;;;;8.69;100.00;102067.31;5251999;28;20030;-76
2023/01/30 10:18:39;;;;;;;18.65;3.30;;;;;;;8.85;100.00;102051.69;5263939;28;20035;-76
2023/01/30 10:21:32;;;;;;;34.40;10.43;;;;;;;8.76;100.00;102052.44;5255539;28;20400;-75
2023/01/30 10:24:33;;;;;;;20.02;3.58;;;;;;;8.89;100.00;102055.00;5241386;28;20036;-76
2023/01/30 10:27:10;;;;;;;19.83;3.15;;;;;;;8.61;100.00;102061.72;5243356;28;20036;-76
2023/01/30 10:29:47;;;;;;;18.83;3.15;;;;;;;8.62;100.00;102066.94;5241987;28;20071;-76
2023/01/30 10:32:25;;;;;;;15.43;3.00;;;;;;;8.82;100.00;102076.03;5253297;28;20557;-76
2023/01/30 10:35:05;;;;;;;25.88;3.30;;;;;;;9.01;100.00;102070.88;5250460;28;20085;-75
2023/01/30 10:37:47;;;;;;;19.80;2.50;;;;;;;9.12;100.00;102075.34;5250307;28;20070;-76
2023/01/30 10:40:34;;;;;;;25.55;2.67;;;;;;;8.99;100.00;102075.50;5252181;28;20380;-75
2023/01/30 10:43:28;;;;;;;20.63;2.90;;;;;;;8.77;100.00;102073.72;5244470;28;20409;-76
2023/01/30 10:46:04;;;;;;;20.10;2.83;;;;;;;8.76;100.00;102074.69;5257856;28;20035;-76
2023/01/30 10:48:45;;;;;;;15.15;2.53;;;;;;;8.61;100.00;102075.09;5264276;28;20427;-76
2023/01/30 10:51:21;;;;;;;14.23;2.97;;;;;;;8.43;100.00;102046.16;5244026;28;20040;-76
2023/01/30 10:54:01;;;;;;;17.35;2.85;;;;;;;8.40;100.00;102081.19;5241671;28;20048;-76
2023/01/30 10:56:40;;;;;;;21.75;3.25;;;;;;;8.52;100.00;102090.06;5242982;28;20021;-75
2023/01/30 10:59:31;;;;;;;16.48;2.90;;;;;;;8.44;100.00;102076.47;5259192;28;20020;-76
2023/01/30 11:02:30;;;;;;;17.98;2.85;;;;;;;8.46;100.00;102080.69;5252062;28;20031;-75
2023/01/30 11:05:23;;;;;;;13.40;2.95;;;;;;;8.44;100.00;102081.81;5247401;28;20083;-75
2023/01/30 11:07:53;;;;;;;18.02;2.78;;;;;;;8.43;100.00;102078.25;5255197;28;20110;-75
2023/01/30 11:10:26;;;;;;;21.25;2.50;;;;;;;8.54;100.00;102072.91;5250818;28;20112;-75
2023/01/30 11:13:11;;;;;;;16.05;2.78;;;;;;;8.55;100.00;102068.41;5246194;28;20039;-75
2023/01/30 11:15:45;;;;;;;14.73;2.53;;;;;;;8.44;100.00;102076.47;5250855;28;20009;-75
2023/01/30 11:18:17;;;;;;;24.40;3.55;;;;;;;8.36;100.00;102077.06;5259128;28;20023;-75
2023/01/30 11:21:03;;;;;;;20.40;2.28;;;;;;;8.41;100.00;102084.72;5254839;28;20027;-76
2023/01/30 11:23:35;;;;;;;23.98;2.63;;;;;;;8.42;100.00;102078.38;5253616;28;20021;-75
2023/01/30 11:26:06;;;;;;;22.63;2.90;;;;;;;8.34;100.00;102075.47;5267982;28;20036;-75
2023/01/30 11:28:55;;;;;;;16.23;3.63;;;;;;;8.34;100.00;102088.81;5261306;28;20511;-75
2023/01/30 11:31:28;;;;;;;12.38;2.60;;;;;;;8.29;100.00;102074.00;5259264;28;20036;-75
2023/01/30 11:34:01;;;;;;;17.35;2.80;;;;;;;8.32;100.00;102079.06;5246903;28;20594;-75
2023/01/30 11:36:34;;;;;;;17.98;2.63;;;;;;;8.28;100.00;102082.13;5245363;28;20119;-75
2023/01/30 11:39:26;;;;;;;19.33;2.63;;;;;;;8.28;100.00;102076.78;5245585;28;20396;-75
2023/01/30 11:42:02;;;;;;;21.73;2.80;;;;;;;8.24;100.00;102076.19;5246804;28;20036;-75
2023/01/30 11:44:34;;;;;;;;;;;;;;;8.19;100.00;102077.53;5245609;28;20024;-75
2023/01/30 11:47:11;;;;;;;14.57;2.70;;;;;;;8.13;100.00;102062.78;5246743;28;19909;-76
2023/01/30 11:49:47;;;;;;;17.17;2.70;;;;;;;8.18;100.00;102062.44;5246275;28;20028;-76
2023/01/30 11:52:22;;;;;;;15.20;2.78;;;;;;;8.00;100.00;102056.72;5246835;28;20013;-75
2023/01/30 11:55:00;;;;;;;23.48;3.88;;;;;;;8.01;100.00;102075.31;5246064;28;20163;-75
2023/01/30 11:57:42;;;;;;;15.32;2.53;;;;;;;8.02;100.00;102071.66;5247853;28;20080;-75